sensor_id;sensor_type;location;lat;lon;timestamp;temperature;humidity
22035;DHT22;11181;51.002;4.356;2022-10-22T00:01:41;17.60;99.90
22035;DHT22;11181;51.002;4.356;2022-10-22T00:04:08;17.70;99.90
22035;DHT22;11181;51.002;4.356;2022-10-22T00:06:35;17.70;99.90
22035;DHT22;11181;51.002;4.356;2022-10-22T00:09:02;17.80;99.90
22035;DHT22;11181;51.002;4.356;2022-10-22T00:11:30;17.90;99.90
22035;DHT22;11181;51.002;4.356;2022-10-22T00:13:57;18.00;99.90
22035;DHT22;11181;51.002;4.356;2022-10-22T00:16:24;18.00;99.90
22035;DHT22;11181;51.002;4.356;2022-10-22T00:18:51;17.80;99.90
22035;DHT22;11181;51.002;4.356;2022-10-22T00:21:18;17.70;99.90
22035;DHT22;11181;51.002;4.356;2022-10-22T00:23:45;17.60;99.90
22035;DHT22;11181;51.002;4.356;2022-10-22T00:26:12;17.50;99.90
22035;DHT22;11181;51.002;4.356;2022-10-22T00:28:40;17.60;99.90
22035;DHT22;11181;51.002;4.356;2022-10-22T00:31:08;17.50;99.90
22035;DHT22;11181;51.002;4.356;2022-10-22T00:33:35;17.40;99.90
22035;DHT22;11181;51.002;4.356;2022-10-22T00:36:03;17.50;99.90
22035;DHT22;11181;51.002;4.356;2022-10-22T00:38:29;17.40;99.90
22035;DHT22;11181;51.002;4.356;2022-10-22T00:40:56;17.40;99.90
22035;DHT22;11181;51.002;4.356;2022-10-22T00:43:23;17.50;99.90
22035;DHT22;11181;51.002;4.356;2022-10-22T00:45:51;17.30;99.90
22035;DHT22;11181;51.002;4.356;2022-10-22T00:48:22;17.30;99.90
22035;DHT22;11181;51.002;4.356;2022-10-22T00:50:53;17.30;99.90
22035;DHT22;11181;51.002;4.356;2022-10-22T00:53:23;17.30;99.90
22035;DHT22;11181;51.002;4.356;2022-10-22T00:55:53;17.20;99.90
22035;DHT22;11181;51.002;4.356;2022-10-22T00:58:23;17.30;99.90
22035;DHT22;11181;51.002;4.356;2022-10-22T01:00:53;17.10;99.90
22035;DHT22;11181;51.002;4.356;2022-10-22T01:03:20;17.20;99.90
22035;DHT22;11181;51.002;4.356;2022-10-22T01:05:55;17.10;99.90
22035;DHT22;11181;51.002;4.356;2022-10-22T01:08:25;17.10;99.90
22035;DHT22;11181;51.002;4.356;2022-10-22T01:11:02;17.10;99.90
22035;DHT22;11181;51.002;4.356;2022-10-22T01:13:37;17.20;99.90
22035;DHT22;11181;51.002;4.356;2022-10-22T01:16:11;17.10;99.90
22035;DHT22;11181;51.002;4.356;2022-10-22T01:18:48;17.20;99.90
22035;DHT22;11181;51.002;4.356;2022-10-22T01:21:24;17.10;99.90
22035;DHT22;11181;51.002;4.356;2022-10-22T01:24:22;17.10;99.90
22035;DHT22;11181;51.002;4.356;2022-10-22T01:27:02;17.10;99.90
22035;DHT22;11181;51.002;4.356;2022-10-22T01:29:36;17.10;99.90
22035;DHT22;11181;51.002;4.356;2022-10-22T01:32:07;17.00;99.90
22035;DHT22;11181;51.002;4.356;2022-10-22T01:34:37;17.10;99.90
22035;DHT22;11181;51.002;4.356;2022-10-22T01:37:06;17.00;99.90
22035;DHT22;11181;51.002;4.356;2022-10-22T01:39:36;16.90;99.90
22035;DHT22;11181;51.002;4.356;2022-10-22T01:42:04;16.90;99.90
22035;DHT22;11181;51.002;4.356;2022-10-22T01:44:32;17.10;99.90
22035;DHT22;11181;51.002;4.356;2022-10-22T01:47:14;17.10;99.90
22035;DHT22;11181;51.002;4.356;2022-10-22T01:49:57;17.00;99.90
22035;DHT22;11181;51.002;4.356;2022-10-22T01:52:38;17.10;99.90
22035;DHT22;11181;51.002;4.356;2022-10-22T01:55:18;17.10;99.90
22035;DHT22;11181;51.002;4.356;2022-10-22T01:57:53;17.10;99.90
22035;DHT22;11181;51.002;4.356;2022-10-22T02:00:23;17.20;99.90
22035;DHT22;11181;51.002;4.356;2022-10-22T02:02:58;17.20;99.90
22035;DHT22;11181;51.002;4.356;2022-10-22T02:05:31;17.20;99.90
22035;DHT22;11181;51.002;4.356;2022-10-22T02:08:02;17.10;99.90
22035;DHT22;11181;51.002;4.356;2022-10-22T02:10:31;17.00;99.90
22035;DHT22;11181;51.002;4.356;2022-10-22T02:13:00;17.10;99.90
22035;DHT22;11181;51.002;4.356;2022-10-22T02:15:29;17.10;99.90
22035;DHT22;11181;51.002;4.356;2022-10-22T02:17:59;17.10;99.90
22035;DHT22;11181;51.002;4.356;2022-10-22T02:20:28;17.10;99.90
22035;DHT22;11181;51.002;4.356;2022-10-22T02:22:58;17.10;99.90
22035;DHT22;11181;51.002;4.356;2022-10-22T02:25:29;17.00;99.90
22035;DHT22;11181;51.002;4.356;2022-10-22T02:28:01;16.90;99.90
22035;DHT22;11181;51.002;4.356;2022-10-22T02:30:30;16.80;99.90
22035;DHT22;11181;51.002;4.356;2022-10-22T02:33:05;16.70;99.90
22035;DHT22;11181;51.002;4.356;2022-10-22T02:35:34;16.80;99.90
22035;DHT22;11181;51.002;4.356;2022-10-22T02:38:02;16.80;99.90
22035;DHT22;11181;51.002;4.356;2022-10-22T02:40:30;16.90;99.90
22035;DHT22;11181;51.002;4.356;2022-10-22T02:42:57;17.00;99.90
22035;DHT22;11181;51.002;4.356;2022-10-22T02:45:25;17.00;99.90
22035;DHT22;11181;51.002;4.356;2022-10-22T02:47:52;17.00;99.90
22035;DHT22;11181;51.002;4.356;2022-10-22T02:50:20;16.90;99.90
22035;DHT22;11181;51.002;4.356;2022-10-22T02:52:47;16.80;99.90
22035;DHT22;11181;51.002;4.356;2022-10-22T02:55:14;16.80;99.90
22035;DHT22;11181;51.002;4.356;2022-10-22T02:57:41;16.90;99.90
22035;DHT22;11181;51.002;4.356;2022-10-22T03:00:09;16.80;99.90
22035;DHT22;11181;51.002;4.356;2022-10-22T03:02:37;16.80;99.90
22035;DHT22;11181;51.002;4.356;2022-10-22T03:05:04;16.80;99.90
22035;DHT22;11181;51.002;4.356;2022-10-22T03:07:33;16.90;99.90
22035;DHT22;11181;51.002;4.356;2022-10-22T03:10:00;16.80;99.90
22035;DHT22;11181;51.002;4.356;2022-10-22T03:12:27;16.80;99.90
22035;DHT22;11181;51.002;4.356;2022-10-22T03:14:54;16.90;99.90
22035;DHT22;11181;51.002;4.356;2022-10-22T03:17:21;16.80;99.90
22035;DHT22;11181;51.002;4.356;2022-10-22T03:19:47;16.60;99.90
22035;DHT22;11181;51.002;4.356;2022-10-22T03:22:17;16.80;99.90
22035;DHT22;11181;51.002;4.356;2022-10-22T03:24:48;16.70;99.90
22035;DHT22;11181;51.002;4.356;2022-10-22T03:27:17;16.80;99.90
22035;DHT22;11181;51.002;4.356;2022-10-22T03:29:46;16.70;99.90
22035;DHT22;11181;51.002;4.356;2022-10-22T03:32:13;16.70;99.90
22035;DHT22;11181;51.002;4.356;2022-10-22T03:34:40;16.60;99.90
22035;DHT22;11181;51.002;4.356;2022-10-22T03:37:07;16.50;99.90
22035;DHT22;11181;51.002;4.356;2022-10-22T03:39:35;16.60;99.90
22035;DHT22;11181;51.002;4.356;2022-10-22T03:42:04;16.60;99.90
22035;DHT22;11181;51.002;4.356;2022-10-22T03:44:33;16.60;99.90
22035;DHT22;11181;51.002;4.356;2022-10-22T03:47:01;16.50;99.90
22035;DHT22;11181;51.002;4.356;2022-10-22T03:49:27;16.60;99.90
22035;DHT22;11181;51.002;4.356;2022-10-22T03:51:55;16.70;99.90
22035;DHT22;11181;51.002;4.356;2022-10-22T03:54:22;16.70;99.90
22035;DHT22;11181;51.002;4.356;2022-10-22T03:56:48;16.70;99.90
22035;DHT22;11181;51.002;4.356;2022-10-22T03:59:17;16.80;99.90
22035;DHT22;11181;51.002;4.356;2022-10-22T04:01:44;16.70;99.90
22035;DHT22;11181;51.002;4.356;2022-10-22T04:04:10;16.70;99.90
22035;DHT22;11181;51.002;4.356;2022-10-22T04:06:37;16.60;99.90
22035;DHT22;11181;51.002;4.356;2022-10-22T04:09:04;16.60;99.90
22035;DHT22;11181;51.002;4.356;2022-10-22T04:11:31;16.70;99.90
22035;DHT22;11181;51.002;4.356;2022-10-22T04:13:58;16.70;99.90
22035;DHT22;11181;51.002;4.356;2022-10-22T04:16:26;16.60;99.90
22035;DHT22;11181;51.002;4.356;2022-10-22T04:18:56;16.50;99.90
22035;DHT22;11181;51.002;4.356;2022-10-22T04:21:23;16.40;99.90
22035;DHT22;11181;51.002;4.356;2022-10-22T04:23:51;16.50;99.90
22035;DHT22;11181;51.002;4.356;2022-10-22T04:26:19;16.50;99.90
22035;DHT22;11181;51.002;4.356;2022-10-22T04:28:47;16.40;99.90
22035;DHT22;11181;51.002;4.356;2022-10-22T04:31:16;16.40;99.90
22035;DHT22;11181;51.002;4.356;2022-10-22T04:33:45;16.30;99.90
22035;DHT22;11181;51.002;4.356;2022-10-22T04:36:13;16.50;99.90
22035;DHT22;11181;51.002;4.356;2022-10-22T04:38:41;16.50;99.90
22035;DHT22;11181;51.002;4.356;2022-10-22T04:41:10;16.50;99.90
22035;DHT22;11181;51.002;4.356;2022-10-22T04:43:37;16.50;99.90
22035;DHT22;11181;51.002;4.356;2022-10-22T04:46:04;16.40;99.90
22035;DHT22;11181;51.002;4.356;2022-10-22T04:48:33;16.40;99.90
22035;DHT22;11181;51.002;4.356;2022-10-22T04:51:02;16.40;99.90
22035;DHT22;11181;51.002;4.356;2022-10-22T04:53:29;16.30;99.90
22035;DHT22;11181;51.002;4.356;2022-10-22T04:56:06;16.40;99.90
22035;DHT22;11181;51.002;4.356;2022-10-22T04:58:33;16.20;99.90
22035;DHT22;11181;51.002;4.356;2022-10-22T05:01:04;16.20;99.90
22035;DHT22;11181;51.002;4.356;2022-10-22T05:03:34;16.20;99.90
22035;DHT22;11181;51.002;4.356;2022-10-22T05:06:02;16.20;99.90
22035;DHT22;11181;51.002;4.356;2022-10-22T05:08:29;16.30;99.90
22035;DHT22;11181;51.002;4.356;2022-10-22T05:10:56;16.40;99.90
22035;DHT22;11181;51.002;4.356;2022-10-22T05:13:23;16.30;99.90
22035;DHT22;11181;51.002;4.356;2022-10-22T05:15:50;16.30;99.90
22035;DHT22;11181;51.002;4.356;2022-10-22T05:18:17;16.40;99.90
22035;DHT22;11181;51.002;4.356;2022-10-22T05:20:44;16.40;99.90
22035;DHT22;11181;51.002;4.356;2022-10-22T05:23:12;16.40;99.90
22035;DHT22;11181;51.002;4.356;2022-10-22T05:25:39;16.40;99.90
22035;DHT22;11181;51.002;4.356;2022-10-22T05:28:06;16.40;99.90
22035;DHT22;11181;51.002;4.356;2022-10-22T05:30:33;16.30;99.90
22035;DHT22;11181;51.002;4.356;2022-10-22T05:33:00;16.30;99.90
22035;DHT22;11181;51.002;4.356;2022-10-22T05:35:27;16.20;99.90
22035;DHT22;11181;51.002;4.356;2022-10-22T05:37:53;16.20;99.90
22035;DHT22;11181;51.002;4.356;2022-10-22T05:40:22;16.30;99.90
22035;DHT22;11181;51.002;4.356;2022-10-22T05:42:48;16.30;99.90
22035;DHT22;11181;51.002;4.356;2022-10-22T05:45:15;16.30;99.90
22035;DHT22;11181;51.002;4.356;2022-10-22T05:47:42;16.30;99.90
22035;DHT22;11181;51.002;4.356;2022-10-22T05:50:09;16.30;99.90
22035;DHT22;11181;51.002;4.356;2022-10-22T05:52:36;16.50;99.90
22035;DHT22;11181;51.002;4.356;2022-10-22T05:55:03;16.50;99.90
22035;DHT22;11181;51.002;4.356;2022-10-22T05:57:32;16.50;99.90
22035;DHT22;11181;51.002;4.356;2022-10-22T05:59:59;16.50;99.90
22035;DHT22;11181;51.002;4.356;2022-10-22T06:02:25;16.60;99.90
22035;DHT22;11181;51.002;4.356;2022-10-22T06:04:52;16.70;99.90
22035;DHT22;11181;51.002;4.356;2022-10-22T06:07:19;16.80;99.90
22035;DHT22;11181;51.002;4.356;2022-10-22T06:09:46;16.90;99.90
22035;DHT22;11181;51.002;4.356;2022-10-22T06:12:15;16.90;99.90
22035;DHT22;11181;51.002;4.356;2022-10-22T06:14:43;16.90;99.90
22035;DHT22;11181;51.002;4.356;2022-10-22T06:17:11;16.90;99.90
22035;DHT22;11181;51.002;4.356;2022-10-22T06:19:38;17.00;99.90
22035;DHT22;11181;51.002;4.356;2022-10-22T06:22:05;16.90;99.90
22035;DHT22;11181;51.002;4.356;2022-10-22T06:24:32;17.00;99.90
22035;DHT22;11181;51.002;4.356;2022-10-22T06:26:59;17.10;99.90
22035;DHT22;11181;51.002;4.356;2022-10-22T06:29:26;17.00;99.90
22035;DHT22;11181;51.002;4.356;2022-10-22T06:31:54;17.00;99.90
22035;DHT22;11181;51.002;4.356;2022-10-22T06:34:21;17.00;99.90
22035;DHT22;11181;51.002;4.356;2022-10-22T06:36:48;16.90;99.90
22035;DHT22;11181;51.002;4.356;2022-10-22T06:39:16;16.90;99.90
22035;DHT22;11181;51.002;4.356;2022-10-22T06:41:44;16.90;99.90
22035;DHT22;11181;51.002;4.356;2022-10-22T06:44:13;16.90;99.90
22035;DHT22;11181;51.002;4.356;2022-10-22T06:46:40;17.00;99.90
22035;DHT22;11181;51.002;4.356;2022-10-22T06:49:12;16.90;99.90
22035;DHT22;11181;51.002;4.356;2022-10-22T06:51:39;16.90;99.90
22035;DHT22;11181;51.002;4.356;2022-10-22T06:54:06;16.90;99.90
22035;DHT22;11181;51.002;4.356;2022-10-22T06:56:33;16.80;99.90
22035;DHT22;11181;51.002;4.356;2022-10-22T06:59:00;16.80;99.90
22035;DHT22;11181;51.002;4.356;2022-10-22T07:01:29;16.80;99.90
22035;DHT22;11181;51.002;4.356;2022-10-22T07:03:56;16.70;99.90
22035;DHT22;11181;51.002;4.356;2022-10-22T07:06:25;16.70;99.90
22035;DHT22;11181;51.002;4.356;2022-10-22T07:08:53;16.90;99.90
22035;DHT22;11181;51.002;4.356;2022-10-22T07:11:22;17.00;99.90
22035;DHT22;11181;51.002;4.356;2022-10-22T07:13:49;17.00;99.90
22035;DHT22;11181;51.002;4.356;2022-10-22T07:16:17;17.20;99.90
22035;DHT22;11181;51.002;4.356;2022-10-22T07:18:45;17.30;99.90
22035;DHT22;11181;51.002;4.356;2022-10-22T07:21:13;17.40;99.90
22035;DHT22;11181;51.002;4.356;2022-10-22T07:23:42;17.50;99.90
22035;DHT22;11181;51.002;4.356;2022-10-22T07:26:11;17.40;99.90
22035;DHT22;11181;51.002;4.356;2022-10-22T07:28:39;17.50;99.90
22035;DHT22;11181;51.002;4.356;2022-10-22T07:31:07;17.40;99.90
22035;DHT22;11181;51.002;4.356;2022-10-22T07:33:34;17.40;99.90
22035;DHT22;11181;51.002;4.356;2022-10-22T07:36:05;17.60;99.90
22035;DHT22;11181;51.002;4.356;2022-10-22T07:38:33;17.60;99.90
22035;DHT22;11181;51.002;4.356;2022-10-22T07:41:02;17.70;99.90
22035;DHT22;11181;51.002;4.356;2022-10-22T07:43:29;17.90;99.90
22035;DHT22;11181;51.002;4.356;2022-10-22T07:45:56;18.10;99.90
22035;DHT22;11181;51.002;4.356;2022-10-22T07:48:27;18.30;99.90
22035;DHT22;11181;51.002;4.356;2022-10-22T07:50:57;18.50;99.90
22035;DHT22;11181;51.002;4.356;2022-10-22T07:53:24;18.60;99.90
22035;DHT22;11181;51.002;4.356;2022-10-22T07:55:54;18.70;99.90
22035;DHT22;11181;51.002;4.356;2022-10-22T07:58:23;18.70;99.90
22035;DHT22;11181;51.002;4.356;2022-10-22T08:00:53;18.60;99.90
22035;DHT22;11181;51.002;4.356;2022-10-22T08:03:20;18.40;99.90
22035;DHT22;11181;51.002;4.356;2022-10-22T08:05:47;18.20;99.90
22035;DHT22;11181;51.002;4.356;2022-10-22T08:08:15;18.20;99.90
22035;DHT22;11181;51.002;4.356;2022-10-22T08:10:43;18.20;99.90
22035;DHT22;11181;51.002;4.356;2022-10-22T08:13:10;18.40;99.90
22035;DHT22;11181;51.002;4.356;2022-10-22T08:15:39;18.40;99.90
22035;DHT22;11181;51.002;4.356;2022-10-22T08:18:07;18.50;99.90
22035;DHT22;11181;51.002;4.356;2022-10-22T08:20:34;18.50;99.90
22035;DHT22;11181;51.002;4.356;2022-10-22T08:23:01;18.30;99.90
22035;DHT22;11181;51.002;4.356;2022-10-22T08:25:27;18.30;99.90
22035;DHT22;11181;51.002;4.356;2022-10-22T08:27:54;18.20;99.90
22035;DHT22;11181;51.002;4.356;2022-10-22T08:30:21;18.20;99.90
22035;DHT22;11181;51.002;4.356;2022-10-22T08:32:50;18.20;99.90
22035;DHT22;11181;51.002;4.356;2022-10-22T08:35:17;18.30;99.90
22035;DHT22;11181;51.002;4.356;2022-10-22T08:37:44;18.20;99.90
22035;DHT22;11181;51.002;4.356;2022-10-22T08:40:18;18.10;99.90
22035;DHT22;11181;51.002;4.356;2022-10-22T08:43:12;18.30;99.90
22035;DHT22;11181;51.002;4.356;2022-10-22T08:45:48;18.60;99.90
22035;DHT22;11181;51.002;4.356;2022-10-22T08:48:31;18.90;99.90
22035;DHT22;11181;51.002;4.356;2022-10-22T08:51:02;19.30;99.90
22035;DHT22;11181;51.002;4.356;2022-10-22T08:53:35;19.50;99.90
22035;DHT22;11181;51.002;4.356;2022-10-22T08:56:05;19.80;99.90
22035;DHT22;11181;51.002;4.356;2022-10-22T08:58:37;20.00;99.90
22035;DHT22;11181;51.002;4.356;2022-10-22T09:01:08;19.90;99.90
22035;DHT22;11181;51.002;4.356;2022-10-22T09:03:45;19.70;99.90
22035;DHT22;11181;51.002;4.356;2022-10-22T09:06:17;19.60;99.90
22035;DHT22;11181;51.002;4.356;2022-10-22T09:08:46;19.60;99.90
22035;DHT22;11181;51.002;4.356;2022-10-22T09:11:23;19.70;99.90
22035;DHT22;11181;51.002;4.356;2022-10-22T09:13:51;20.00;99.90
22035;DHT22;11181;51.002;4.356;2022-10-22T09:16:24;20.30;99.90
22035;DHT22;11181;51.002;4.356;2022-10-22T09:19:05;20.60;99.90
22035;DHT22;11181;51.002;4.356;2022-10-22T09:21:41;20.80;99.90
22035;DHT22;11181;51.002;4.356;2022-10-22T09:24:16;21.00;99.90
22035;DHT22;11181;51.002;4.356;2022-10-22T09:26:45;21.00;99.90
22035;DHT22;11181;51.002;4.356;2022-10-22T09:29:17;21.10;99.90
22035;DHT22;11181;51.002;4.356;2022-10-22T09:31:45;21.30;99.90
22035;DHT22;11181;51.002;4.356;2022-10-22T09:34:16;21.30;99.90
22035;DHT22;11181;51.002;4.356;2022-10-22T09:36:45;21.50;99.90
22035;DHT22;11181;51.002;4.356;2022-10-22T09:39:24;21.60;99.90
22035;DHT22;11181;51.002;4.356;2022-10-22T09:41:51;21.70;99.90
22035;DHT22;11181;51.002;4.356;2022-10-22T09:44:18;21.90;99.90
22035;DHT22;11181;51.002;4.356;2022-10-22T09:46:45;21.80;99.90
22035;DHT22;11181;51.002;4.356;2022-10-22T09:49:15;21.90;99.90
22035;DHT22;11181;51.002;4.356;2022-10-22T09:51:53;22.00;99.90
22035;DHT22;11181;51.002;4.356;2022-10-22T09:54:22;22.10;99.90
22035;DHT22;11181;51.002;4.356;2022-10-22T09:56:52;22.20;99.90
22035;DHT22;11181;51.002;4.356;2022-10-22T09:59:28;22.30;99.90
22035;DHT22;11181;51.002;4.356;2022-10-22T10:02:00;22.40;99.90
22035;DHT22;11181;51.002;4.356;2022-10-22T10:04:33;22.50;99.90
22035;DHT22;11181;51.002;4.356;2022-10-22T10:07:00;22.70;99.90
22035;DHT22;11181;51.002;4.356;2022-10-22T10:09:30;22.90;99.90
22035;DHT22;11181;51.002;4.356;2022-10-22T10:12:07;23.00;99.90
22035;DHT22;11181;51.002;4.356;2022-10-22T10:14:45;23.00;99.90
22035;DHT22;11181;51.002;4.356;2022-10-22T10:17:21;23.10;99.90
22035;DHT22;11181;51.002;4.356;2022-10-22T10:19:58;22.90;99.90
22035;DHT22;11181;51.002;4.356;2022-10-22T10:22:42;23.00;99.90
22035;DHT22;11181;51.002;4.356;2022-10-22T10:28:05;23.10;99.90
22035;DHT22;11181;51.002;4.356;2022-10-22T10:30:37;23.30;99.90
22035;DHT22;11181;51.002;4.356;2022-10-22T10:33:15;23.50;99.90
22035;DHT22;11181;51.002;4.356;2022-10-22T10:35:52;23.90;99.90
22035;DHT22;11181;51.002;4.356;2022-10-22T10:38:41;23.90;99.90
22035;DHT22;11181;51.002;4.356;2022-10-22T10:41:19;24.00;99.90
22035;DHT22;11181;51.002;4.356;2022-10-22T10:44:02;24.20;99.90
22035;DHT22;11181;51.002;4.356;2022-10-22T10:46:42;24.30;99.90
22035;DHT22;11181;51.002;4.356;2022-10-22T10:49:17;24.40;99.90
22035;DHT22;11181;51.002;4.356;2022-10-22T10:51:52;24.50;99.90
22035;DHT22;11181;51.002;4.356;2022-10-22T10:54:34;24.20;99.90
22035;DHT22;11181;51.002;4.356;2022-10-22T10:57:05;24.00;99.90
22035;DHT22;11181;51.002;4.356;2022-10-22T10:59:45;23.80;99.90
22035;DHT22;11181;51.002;4.356;2022-10-22T11:02:33;23.60;99.90
22035;DHT22;11181;51.002;4.356;2022-10-22T11:05:11;23.50;99.90
22035;DHT22;11181;51.002;4.356;2022-10-22T11:07:46;23.30;99.90
22035;DHT22;11181;51.002;4.356;2022-10-22T11:10:23;23.10;99.90
22035;DHT22;11181;51.002;4.356;2022-10-22T11:12:54;22.80;99.90
22035;DHT22;11181;51.002;4.356;2022-10-22T11:15:27;22.80;99.90
22035;DHT22;11181;51.002;4.356;2022-10-22T11:18:00;22.80;99.90
22035;DHT22;11181;51.002;4.356;2022-10-22T11:20:40;22.70;99.90
22035;DHT22;11181;51.002;4.356;2022-10-22T11:23:15;22.70;99.90
22035;DHT22;11181;51.002;4.356;2022-10-22T11:25:45;22.80;99.90
22035;DHT22;11181;51.002;4.356;2022-10-22T11:28:15;22.90;99.90
22035;DHT22;11181;51.002;4.356;2022-10-22T11:30:46;23.00;99.90
22035;DHT22;11181;51.002;4.356;2022-10-22T11:33:17;23.10;99.90
22035;DHT22;11181;51.002;4.356;2022-10-22T11:35:45;23.30;99.90
22035;DHT22;11181;51.002;4.356;2022-10-22T11:38:17;23.30;99.90
22035;DHT22;11181;51.002;4.356;2022-10-22T11:40:51;23.10;99.90
22035;DHT22;11181;51.002;4.356;2022-10-22T11:43:29;23.00;99.90
22035;DHT22;11181;51.002;4.356;2022-10-22T11:46:02;23.00;99.90
22035;DHT22;11181;51.002;4.356;2022-10-22T11:48:36;22.80;99.90
22035;DHT22;11181;51.002;4.356;2022-10-22T11:51:33;22.50;99.90
22035;DHT22;11181;51.002;4.356;2022-10-22T11:54:02;22.30;99.90
22035;DHT22;11181;51.002;4.356;2022-10-22T11:56:51;22.30;99.90
22035;DHT22;11181;51.002;4.356;2022-10-22T11:59:37;22.30;99.90
22035;DHT22;11181;51.002;4.356;2022-10-22T12:02:30;22.30;99.90
22035;DHT22;11181;51.002;4.356;2022-10-22T12:05:18;22.30;99.90
22035;DHT22;11181;51.002;4.356;2022-10-22T12:07:53;22.30;99.90
22035;DHT22;11181;51.002;4.356;2022-10-22T12:10:27;22.20;99.90
22035;DHT22;11181;51.002;4.356;2022-10-22T12:13:04;22.10;99.90
22035;DHT22;11181;51.002;4.356;2022-10-22T12:15:47;22.00;99.90
22035;DHT22;11181;51.002;4.356;2022-10-22T12:18:17;22.20;99.90
22035;DHT22;11181;51.002;4.356;2022-10-22T12:20:51;22.30;99.90
22035;DHT22;11181;51.002;4.356;2022-10-22T12:23:28;22.40;99.90
22035;DHT22;11181;51.002;4.356;2022-10-22T12:25:56;22.50;99.90
22035;DHT22;11181;51.002;4.356;2022-10-22T12:28:25;22.70;99.90
22035;DHT22;11181;51.002;4.356;2022-10-22T12:30:53;22.80;99.90
22035;DHT22;11181;51.002;4.356;2022-10-22T12:33:25;23.10;99.90
22035;DHT22;11181;51.002;4.356;2022-10-22T12:35:54;23.40;99.90
22035;DHT22;11181;51.002;4.356;2022-10-22T12:38:31;23.70;99.90
22035;DHT22;11181;51.002;4.356;2022-10-22T12:41:01;23.80;99.90
22035;DHT22;11181;51.002;4.356;2022-10-22T12:43:29;23.90;99.90
22035;DHT22;11181;51.002;4.356;2022-10-22T12:45:59;23.90;99.90
22035;DHT22;11181;51.002;4.356;2022-10-22T12:48:31;24.00;99.90
22035;DHT22;11181;51.002;4.356;2022-10-22T12:51:16;24.20;99.90
22035;DHT22;11181;51.002;4.356;2022-10-22T12:54:03;24.30;99.90
22035;DHT22;11181;51.002;4.356;2022-10-22T12:56:36;24.30;99.90
22035;DHT22;11181;51.002;4.356;2022-10-22T12:59:08;24.30;99.90
22035;DHT22;11181;51.002;4.356;2022-10-22T13:01:43;24.40;99.90
22035;DHT22;11181;51.002;4.356;2022-10-22T13:04:20;24.10;99.90
22035;DHT22;11181;51.002;4.356;2022-10-22T13:06:49;23.80;99.90
22035;DHT22;11181;51.002;4.356;2022-10-22T13:09:22;23.80;99.90
22035;DHT22;11181;51.002;4.356;2022-10-22T13:12:02;23.80;99.90
22035;DHT22;11181;51.002;4.356;2022-10-22T13:14:32;23.80;99.90
22035;DHT22;11181;51.002;4.356;2022-10-22T13:17:17;23.90;99.90
22035;DHT22;11181;51.002;4.356;2022-10-22T13:20:00;24.00;99.90
22035;DHT22;11181;51.002;4.356;2022-10-22T13:22:36;24.00;99.90
22035;DHT22;11181;51.002;4.356;2022-10-22T13:25:23;23.90;99.90
22035;DHT22;11181;51.002;4.356;2022-10-22T13:27:53;23.90;99.90
22035;DHT22;11181;51.002;4.356;2022-10-22T13:30:26;23.90;99.90
22035;DHT22;11181;51.002;4.356;2022-10-22T13:32:59;23.80;99.90
22035;DHT22;11181;51.002;4.356;2022-10-22T13:35:31;23.80;99.90
22035;DHT22;11181;51.002;4.356;2022-10-22T13:38:00;23.70;99.90
22035;DHT22;11181;51.002;4.356;2022-10-22T13:40:29;23.60;99.90
22035;DHT22;11181;51.002;4.356;2022-10-22T13:42:56;23.50;99.90
22035;DHT22;11181;51.002;4.356;2022-10-22T13:45:22;23.40;99.90
22035;DHT22;11181;51.002;4.356;2022-10-22T13:47:51;23.20;99.90
22035;DHT22;11181;51.002;4.356;2022-10-22T13:50:19;23.20;99.90
22035;DHT22;11181;51.002;4.356;2022-10-22T13:52:49;23.20;99.90
22035;DHT22;11181;51.002;4.356;2022-10-22T13:55:19;23.20;99.90
22035;DHT22;11181;51.002;4.356;2022-10-22T13:57:48;23.00;99.90
22035;DHT22;11181;51.002;4.356;2022-10-22T14:00:16;22.90;99.90
22035;DHT22;11181;51.002;4.356;2022-10-22T14:02:46;22.80;99.90
22035;DHT22;11181;51.002;4.356;2022-10-22T14:05:14;22.80;99.90
22035;DHT22;11181;51.002;4.356;2022-10-22T14:07:41;22.90;99.90
22035;DHT22;11181;51.002;4.356;2022-10-22T14:10:16;23.00;99.90
22035;DHT22;11181;51.002;4.356;2022-10-22T14:12:44;23.00;99.90
22035;DHT22;11181;51.002;4.356;2022-10-22T14:15:14;23.00;99.90
22035;DHT22;11181;51.002;4.356;2022-10-22T14:17:43;23.20;99.90
22035;DHT22;11181;51.002;4.356;2022-10-22T14:20:15;23.10;99.90
22035;DHT22;11181;51.002;4.356;2022-10-22T14:22:44;23.20;99.90
22035;DHT22;11181;51.002;4.356;2022-10-22T14:25:13;23.10;99.90
22035;DHT22;11181;51.002;4.356;2022-10-22T14:27:41;23.00;99.90
22035;DHT22;11181;51.002;4.356;2022-10-22T14:30:08;23.00;99.90
22035;DHT22;11181;51.002;4.356;2022-10-22T14:32:40;23.00;99.90
22035;DHT22;11181;51.002;4.356;2022-10-22T14:35:10;23.00;99.90
22035;DHT22;11181;51.002;4.356;2022-10-22T14:37:38;23.10;99.90
22035;DHT22;11181;51.002;4.356;2022-10-22T14:40:06;23.10;99.90
22035;DHT22;11181;51.002;4.356;2022-10-22T14:42:36;23.10;99.90
22035;DHT22;11181;51.002;4.356;2022-10-22T14:45:05;23.10;99.90
22035;DHT22;11181;51.002;4.356;2022-10-22T14:47:33;23.20;99.90
22035;DHT22;11181;51.002;4.356;2022-10-22T14:50:01;23.20;99.90
22035;DHT22;11181;51.002;4.356;2022-10-22T14:52:28;23.30;99.90
22035;DHT22;11181;51.002;4.356;2022-10-22T14:54:55;23.40;99.90
22035;DHT22;11181;51.002;4.356;2022-10-22T14:57:22;23.50;99.90
22035;DHT22;11181;51.002;4.356;2022-10-22T14:59:48;23.60;99.90
22035;DHT22;11181;51.002;4.356;2022-10-22T15:02:19;23.70;99.90
22035;DHT22;11181;51.002;4.356;2022-10-22T15:04:47;23.80;99.90
22035;DHT22;11181;51.002;4.356;2022-10-22T15:07:15;23.80;99.90
22035;DHT22;11181;51.002;4.356;2022-10-22T15:09:42;23.80;99.90
22035;DHT22;11181;51.002;4.356;2022-10-22T15:12:09;23.80;99.90
22035;DHT22;11181;51.002;4.356;2022-10-22T15:14:36;23.80;99.90
22035;DHT22;11181;51.002;4.356;2022-10-22T15:17:02;23.70;99.90
22035;DHT22;11181;51.002;4.356;2022-10-22T15:19:29;23.70;99.90
22035;DHT22;11181;51.002;4.356;2022-10-22T15:21:56;23.80;99.90
22035;DHT22;11181;51.002;4.356;2022-10-22T15:24:24;23.80;99.90
22035;DHT22;11181;51.002;4.356;2022-10-22T15:26:51;23.70;99.90
22035;DHT22;11181;51.002;4.356;2022-10-22T15:29:18;23.70;99.90
22035;DHT22;11181;51.002;4.356;2022-10-22T15:31:47;23.70;99.90
22035;DHT22;11181;51.002;4.356;2022-10-22T15:34:18;23.70;99.90
22035;DHT22;11181;51.002;4.356;2022-10-22T15:36:48;23.80;99.90
22035;DHT22;11181;51.002;4.356;2022-10-22T15:39:16;23.70;99.90
22035;DHT22;11181;51.002;4.356;2022-10-22T15:41:44;23.80;99.90
22035;DHT22;11181;51.002;4.356;2022-10-22T15:44:15;23.80;99.90
22035;DHT22;11181;51.002;4.356;2022-10-22T15:46:42;23.80;99.90
22035;DHT22;11181;51.002;4.356;2022-10-22T15:49:09;23.80;99.90
22035;DHT22;11181;51.002;4.356;2022-10-22T15:51:36;23.80;99.90
22035;DHT22;11181;51.002;4.356;2022-10-22T15:54:03;23.70;99.90